sensor_id;sensor_type;location;lat;lon;timestamp;P1;durP1;ratioP1;P2;durP2;ratioP2
45274;SDS011;31019;43.780;25.948;2023-04-09T00:01:41;187.13;;;170.40;;
45274;SDS011;31019;43.780;25.948;2023-04-09T00:04:09;189.20;;;172.02;;
45274;SDS011;31019;43.780;25.948;2023-04-09T00:06:35;184.52;;;167.75;;
45274;SDS011;31019;43.780;25.948;2023-04-09T00:09:02;188.95;;;171.50;;
45274;SDS011;31019;43.780;25.948;2023-04-09T00:11:29;198.18;;;179.57;;
45274;SDS011;31019;43.780;25.948;2023-04-09T00:13:56;176.05;;;158.63;;
45274;SDS011;31019;43.780;25.948;2023-04-09T00:16:25;216.73;;;196.60;;
45274;SDS011;31019;43.780;25.948;2023-04-09T00:18:52;186.48;;;167.57;;
45274;SDS011;31019;43.780;25.948;2023-04-09T00:21:20;196.57;;;177.38;;
45274;SDS011;31019;43.780;25.948;2023-04-09T00:23:47;210.73;;;192.00;;
45274;SDS011;31019;43.780;25.948;2023-04-09T00:26:14;190.30;;;172.48;;
45274;SDS011;31019;43.780;25.948;2023-04-09T00:28:41;191.27;;;174.10;;
45274;SDS011;31019;43.780;25.948;2023-04-09T00:31:08;187.38;;;170.98;;
45274;SDS011;31019;43.780;25.948;2023-04-09T00:33:36;199.30;;;182.15;;
45274;SDS011;31019;43.780;25.948;2023-04-09T00:36:03;175.77;;;160.18;;
45274;SDS011;31019;43.780;25.948;2023-04-09T00:38:30;176.73;;;161.00;;
45274;SDS011;31019;43.780;25.948;2023-04-09T00:40:57;191.20;;;174.50;;
45274;SDS011;31019;43.780;25.948;2023-04-09T00:43:27;233.90;;;213.73;;
45274;SDS011;31019;43.780;25.948;2023-04-09T00:45:54;225.10;;;206.90;;
45274;SDS011;31019;43.780;25.948;2023-04-09T00:48:22;192.75;;;176.25;;
45274;SDS011;31019;43.780;25.948;2023-04-09T00:50:50;183.55;;;166.85;;
45274;SDS011;31019;43.780;25.948;2023-04-09T00:53:17;177.15;;;160.73;;
45274;SDS011;31019;43.780;25.948;2023-04-09T00:55:45;207.88;;;189.57;;
45274;SDS011;31019;43.780;25.948;2023-04-09T00:58:12;198.73;;;181.13;;
45274;SDS011;31019;43.780;25.948;2023-04-09T01:00:39;204.32;;;186.15;;
45274;SDS011;31019;43.780;25.948;2023-04-09T01:03:06;208.80;;;190.18;;
45274;SDS011;31019;43.780;25.948;2023-04-09T01:05:36;217.32;;;198.70;;
45274;SDS011;31019;43.780;25.948;2023-04-09T01:08:10;206.88;;;188.95;;
45274;SDS011;31019;43.780;25.948;2023-04-09T01:10:42;229.43;;;210.18;;
45274;SDS011;31019;43.780;25.948;2023-04-09T01:13:19;191.35;;;174.18;;
45274;SDS011;31019;43.780;25.948;2023-04-09T01:15:53;195.20;;;178.10;;
45274;SDS011;31019;43.780;25.948;2023-04-09T01:18:23;225.75;;;206.95;;
45274;SDS011;31019;43.780;25.948;2023-04-09T01:20:57;209.82;;;191.45;;
45274;SDS011;31019;43.780;25.948;2023-04-09T01:23:31;210.27;;;191.95;;
45274;SDS011;31019;43.780;25.948;2023-04-09T01:26:09;211.95;;;193.65;;
45274;SDS011;31019;43.780;25.948;2023-04-09T01:28:46;205.65;;;187.55;;
45274;SDS011;31019;43.780;25.948;2023-04-09T01:31:19;193.95;;;176.77;;
45274;SDS011;31019;43.780;25.948;2023-04-09T01:33:47;221.32;;;202.35;;
45274;SDS011;31019;43.780;25.948;2023-04-09T01:36:14;236.95;;;216.50;;
45274;SDS011;31019;43.780;25.948;2023-04-09T01:38:42;205.52;;;187.07;;
45274;SDS011;31019;43.780;25.948;2023-04-09T01:41:11;209.45;;;190.15;;
45274;SDS011;31019;43.780;25.948;2023-04-09T01:43:40;193.98;;;176.18;;
45274;SDS011;31019;43.780;25.948;2023-04-09T01:46:10;208.32;;;189.77;;
45274;SDS011;31019;43.780;25.948;2023-04-09T01:48:38;230.35;;;210.77;;
45274;SDS011;31019;43.780;25.948;2023-04-09T01:51:05;245.70;;;224.93;;
45274;SDS011;31019;43.780;25.948;2023-04-09T01:53:32;230.00;;;209.98;;
45274;SDS011;31019;43.780;25.948;2023-04-09T01:55:59;235.85;;;215.07;;
45274;SDS011;31019;43.780;25.948;2023-04-09T01:58:27;231.25;;;211.73;;
45274;SDS011;31019;43.780;25.948;2023-04-09T02:00:59;176.30;;;158.90;;
45274;SDS011;31019;43.780;25.948;2023-04-09T02:03:33;223.10;;;203.55;;
45274;SDS011;31019;43.780;25.948;2023-04-09T02:06:05;234.05;;;214.52;;
45274;SDS011;31019;43.780;25.948;2023-04-09T02:08:37;212.65;;;194.00;;
45274;SDS011;31019;43.780;25.948;2023-04-09T02:11:05;183.43;;;165.93;;
45274;SDS011;31019;43.780;25.948;2023-04-09T02:13:35;207.23;;;189.05;;
45274;SDS011;31019;43.780;25.948;2023-04-09T02:16:05;193.90;;;176.38;;
45274;SDS011;31019;43.780;25.948;2023-04-09T02:18:35;200.88;;;183.00;;
45274;SDS011;31019;43.780;25.948;2023-04-09T02:21:02;220.80;;;202.60;;
45274;SDS011;31019;43.780;25.948;2023-04-09T02:23:29;226.02;;;207.10;;
45274;SDS011;31019;43.780;25.948;2023-04-09T02:25:58;208.55;;;190.23;;
45274;SDS011;31019;43.780;25.948;2023-04-09T02:28:25;188.07;;;171.52;;
45274;SDS011;31019;43.780;25.948;2023-04-09T02:30:52;201.75;;;184.68;;
45274;SDS011;31019;43.780;25.948;2023-04-09T02:33:19;149.98;;;135.50;;
45274;SDS011;31019;43.780;25.948;2023-04-09T02:35:48;157.75;;;142.80;;
45274;SDS011;31019;43.780;25.948;2023-04-09T02:38:14;147.52;;;133.40;;
45274;SDS011;31019;43.780;25.948;2023-04-09T02:40:41;152.20;;;137.95;;
45274;SDS011;31019;43.780;25.948;2023-04-09T02:43:08;164.48;;;149.43;;
45274;SDS011;31019;43.780;25.948;2023-04-09T02:45:35;140.93;;;127.43;;
45274;SDS011;31019;43.780;25.948;2023-04-09T02:48:02;151.90;;;137.95;;
45274;SDS011;31019;43.780;25.948;2023-04-09T02:50:29;154.18;;;140.45;;
45274;SDS011;31019;43.780;25.948;2023-04-09T02:52:57;132.30;;;119.93;;
45274;SDS011;31019;43.780;25.948;2023-04-09T02:55:27;127.47;;;115.28;;
45274;SDS011;31019;43.780;25.948;2023-04-09T02:57:54;125.20;;;113.45;;
45274;SDS011;31019;43.780;25.948;2023-04-09T03:00:21;128.35;;;116.10;;
45274;SDS011;31019;43.780;25.948;2023-04-09T03:02:48;118.40;;;107.07;;
45274;SDS011;31019;43.780;25.948;2023-04-09T03:05:16;119.78;;;108.43;;
45274;SDS011;31019;43.780;25.948;2023-04-09T03:07:43;123.30;;;111.70;;
45274;SDS011;31019;43.780;25.948;2023-04-09T03:10:12;125.15;;;113.68;;
45274;SDS011;31019;43.780;25.948;2023-04-09T03:12:39;142.55;;;130.10;;
45274;SDS011;31019;43.780;25.948;2023-04-09T03:15:08;111.25;;;99.97;;
45274;SDS011;31019;43.780;25.948;2023-04-09T03:17:36;111.22;;;100.43;;
45274;SDS011;31019;43.780;25.948;2023-04-09T03:20:03;120.43;;;108.82;;
45274;SDS011;31019;43.780;25.948;2023-04-09T03:22:34;131.60;;;119.03;;
45274;SDS011;31019;43.780;25.948;2023-04-09T03:25:01;129.50;;;116.70;;
45274;SDS011;31019;43.780;25.948;2023-04-09T03:27:30;115.65;;;104.07;;
45274;SDS011;31019;43.780;25.948;2023-04-09T03:29:57;104.68;;;94.07;;
45274;SDS011;31019;43.780;25.948;2023-04-09T03:32:24;118.47;;;107.22;;
45274;SDS011;31019;43.780;25.948;2023-04-09T03:34:51;110.28;;;99.38;;
45274;SDS011;31019;43.780;25.948;2023-04-09T03:37:18;104.20;;;93.82;;
45274;SDS011;31019;43.780;25.948;2023-04-09T03:39:45;91.95;;;82.28;;
45274;SDS011;31019;43.780;25.948;2023-04-09T03:42:12;95.90;;;86.28;;
45274;SDS011;31019;43.780;25.948;2023-04-09T03:44:41;105.25;;;95.10;;
45274;SDS011;31019;43.780;25.948;2023-04-09T03:47:07;95.18;;;85.43;;
45274;SDS011;31019;43.780;25.948;2023-04-09T03:49:34;94.40;;;84.88;;
45274;SDS011;31019;43.780;25.948;2023-04-09T03:52:02;89.70;;;80.57;;
45274;SDS011;31019;43.780;25.948;2023-04-09T03:54:28;91.78;;;82.60;;
45274;SDS011;31019;43.780;25.948;2023-04-09T03:56:55;88.72;;;79.85;;
45274;SDS011;31019;43.780;25.948;2023-04-09T03:59:23;98.70;;;89.10;;
45274;SDS011;31019;43.780;25.948;2023-04-09T04:01:51;95.78;;;86.47;;
45274;SDS011;31019;43.780;25.948;2023-04-09T04:04:18;95.55;;;86.00;;
45274;SDS011;31019;43.780;25.948;2023-04-09T04:06:45;96.88;;;87.45;;
45274;SDS011;31019;43.780;25.948;2023-04-09T04:09:12;92.65;;;83.40;;
45274;SDS011;31019;43.780;25.948;2023-04-09T04:11:39;89.25;;;80.35;;
45274;SDS011;31019;43.780;25.948;2023-04-09T04:14:06;93.60;;;83.95;;
45274;SDS011;31019;43.780;25.948;2023-04-09T04:16:33;92.75;;;83.28;;
45274;SDS011;31019;43.780;25.948;2023-04-09T04:19:01;106.68;;;96.32;;
45274;SDS011;31019;43.780;25.948;2023-04-09T04:21:28;105.68;;;94.85;;
45274;SDS011;31019;43.780;25.948;2023-04-09T04:23:56;100.70;;;89.97;;
45274;SDS011;31019;43.780;25.948;2023-04-09T04:26:23;106.97;;;95.28;;
45274;SDS011;31019;43.780;25.948;2023-04-09T04:28:50;100.03;;;89.30;;
45274;SDS011;31019;43.780;25.948;2023-04-09T04:31:17;118.47;;;103.05;;
45274;SDS011;31019;43.780;25.948;2023-04-09T04:33:43;180.75;;;144.45;;
45274;SDS011;31019;43.780;25.948;2023-04-09T04:36:12;155.88;;;125.15;;
45274;SDS011;31019;43.780;25.948;2023-04-09T04:38:40;180.43;;;129.75;;
45274;SDS011;31019;43.780;25.948;2023-04-09T04:41:07;178.95;;;129.23;;
45274;SDS011;31019;43.780;25.948;2023-04-09T04:43:35;121.75;;;104.93;;
45274;SDS011;31019;43.780;25.948;2023-04-09T04:46:02;133.38;;;110.82;;
45274;SDS011;31019;43.780;25.948;2023-04-09T04:48:30;115.68;;;102.30;;
45274;SDS011;31019;43.780;25.948;2023-04-09T04:50:57;108.43;;;97.05;;
45274;SDS011;31019;43.780;25.948;2023-04-09T04:53:27;104.03;;;92.97;;
45274;SDS011;31019;43.780;25.948;2023-04-09T04:55:54;103.00;;;93.10;;
45274;SDS011;31019;43.780;25.948;2023-04-09T04:58:21;106.60;;;95.85;;
45274;SDS011;31019;43.780;25.948;2023-04-09T05:00:48;103.57;;;93.55;;
45274;SDS011;31019;43.780;25.948;2023-04-09T05:03:15;106.40;;;96.05;;
45274;SDS011;31019;43.780;25.948;2023-04-09T05:05:42;118.55;;;107.88;;
45274;SDS011;31019;43.780;25.948;2023-04-09T05:08:10;115.20;;;104.53;;
45274;SDS011;31019;43.780;25.948;2023-04-09T05:10:40;113.32;;;102.93;;
45274;SDS011;31019;43.780;25.948;2023-04-09T05:13:08;105.15;;;95.38;;
45274;SDS011;31019;43.780;25.948;2023-04-09T05:15:39;113.55;;;102.82;;
45274;SDS011;31019;43.780;25.948;2023-04-09T05:18:06;109.63;;;99.75;;
45274;SDS011;31019;43.780;25.948;2023-04-09T05:20:34;112.10;;;102.35;;
45274;SDS011;31019;43.780;25.948;2023-04-09T05:23:01;116.53;;;106.28;;
45274;SDS011;31019;43.780;25.948;2023-04-09T05:25:27;116.15;;;105.75;;
45274;SDS011;31019;43.780;25.948;2023-04-09T05:27:56;117.60;;;107.50;;
45274;SDS011;31019;43.780;25.948;2023-04-09T05:30:23;121.97;;;111.22;;
45274;SDS011;31019;43.780;25.948;2023-04-09T05:32:50;129.77;;;117.97;;
45274;SDS011;31019;43.780;25.948;2023-04-09T05:35:17;125.05;;;113.57;;
45274;SDS011;31019;43.780;25.948;2023-04-09T05:37:44;121.63;;;110.68;;
45274;SDS011;31019;43.780;25.948;2023-04-09T05:40:11;127.88;;;116.65;;
45274;SDS011;31019;43.780;25.948;2023-04-09T05:42:39;117.72;;;107.57;;
45274;SDS011;31019;43.780;25.948;2023-04-09T05:45:08;123.78;;;113.38;;
45274;SDS011;31019;43.780;25.948;2023-04-09T05:47:35;131.98;;;121.57;;
45274;SDS011;31019;43.780;25.948;2023-04-09T05:50:02;128.77;;;118.18;;
45274;SDS011;31019;43.780;25.948;2023-04-09T05:52:30;133.20;;;122.65;;
45274;SDS011;31019;43.780;25.948;2023-04-09T05:54:57;144.20;;;132.05;;
45274;SDS011;31019;43.780;25.948;2023-04-09T05:57:27;137.98;;;126.82;;
45274;SDS011;31019;43.780;25.948;2023-04-09T05:59:55;138.93;;;128.18;;
45274;SDS011;31019;43.780;25.948;2023-04-09T06:02:24;125.68;;;116.10;;
45274;SDS011;31019;43.780;25.948;2023-04-09T06:04:51;116.32;;;106.55;;
45274;SDS011;31019;43.780;25.948;2023-04-09T06:07:17;128.77;;;118.78;;
45274;SDS011;31019;43.780;25.948;2023-04-09T06:09:45;141.45;;;130.48;;
45274;SDS011;31019;43.780;25.948;2023-04-09T06:12:12;132.27;;;122.25;;
45274;SDS011;31019;43.780;25.948;2023-04-09T06:14:39;124.55;;;114.88;;
45274;SDS011;31019;43.780;25.948;2023-04-09T06:17:06;132.90;;;122.57;;
45274;SDS011;31019;43.780;25.948;2023-04-09T06:19:34;134.20;;;124.18;;
45274;SDS011;31019;43.780;25.948;2023-04-09T06:22:01;140.98;;;130.45;;
45274;SDS011;31019;43.780;25.948;2023-04-09T06:24:29;118.63;;;110.13;;
45274;SDS011;31019;43.780;25.948;2023-04-09T06:26:56;108.68;;;101.00;;
45274;SDS011;31019;43.780;25.948;2023-04-09T06:29:23;96.10;;;89.30;;
45274;SDS011;31019;43.780;25.948;2023-04-09T06:31:50;79.63;;;73.47;;
45274;SDS011;31019;43.780;25.948;2023-04-09T06:34:17;81.65;;;75.85;;
45274;SDS011;31019;43.780;25.948;2023-04-09T06:36:46;75.18;;;67.60;;
45274;SDS011;31019;43.780;25.948;2023-04-09T06:39:12;120.45;;;84.90;;
45274;SDS011;31019;43.780;25.948;2023-04-09T06:41:39;81.28;;;69.47;;
45274;SDS011;31019;43.780;25.948;2023-04-09T06:44:06;64.53;;;59.33;;
45274;SDS011;31019;43.780;25.948;2023-04-09T06:46:33;77.53;;;71.72;;
45274;SDS011;31019;43.780;25.948;2023-04-09T06:49:00;87.55;;;80.78;;
45274;SDS011;31019;43.780;25.948;2023-04-09T06:51:27;83.47;;;77.65;;
45274;SDS011;31019;43.780;25.948;2023-04-09T06:53:55;102.25;;;94.97;;
45274;SDS011;31019;43.780;25.948;2023-04-09T06:56:23;68.50;;;63.50;;
45274;SDS011;31019;43.780;25.948;2023-04-09T06:58:50;37.88;;;34.90;;
45274;SDS011;31019;43.780;25.948;2023-04-09T07:01:17;36.10;;;33.15;;
45274;SDS011;31019;43.780;25.948;2023-04-09T07:03:43;42.72;;;39.30;;
45274;SDS011;31019;43.780;25.948;2023-04-09T07:06:11;40.78;;;37.35;;
45274;SDS011;31019;43.780;25.948;2023-04-09T07:08:38;40.53;;;37.15;;
45274;SDS011;31019;43.780;25.948;2023-04-09T07:11:07;37.03;;;34.17;;
45274;SDS011;31019;43.780;25.948;2023-04-09T07:13:34;40.20;;;37.03;;
45274;SDS011;31019;43.780;25.948;2023-04-09T07:16:00;44.72;;;41.05;;
45274;SDS011;31019;43.780;25.948;2023-04-09T07:18:27;51.15;;;46.65;;
45274;SDS011;31019;43.780;25.948;2023-04-09T07:20:55;48.65;;;44.53;;
45274;SDS011;31019;43.780;25.948;2023-04-09T07:23:22;42.47;;;38.92;;
45274;SDS011;31019;43.780;25.948;2023-04-09T07:25:50;40.22;;;36.95;;
45274;SDS011;31019;43.780;25.948;2023-04-09T07:28:18;40.58;;;36.60;;
45274;SDS011;31019;43.780;25.948;2023-04-09T07:30:45;40.42;;;36.80;;
45274;SDS011;31019;43.780;25.948;2023-04-09T07:33:12;39.63;;;36.17;;
45274;SDS011;31019;43.780;25.948;2023-04-09T07:35:39;51.20;;;45.80;;
45274;SDS011;31019;43.780;25.948;2023-04-09T07:38:06;38.42;;;35.13;;
45274;SDS011;31019;43.780;25.948;2023-04-09T07:40:33;35.80;;;33.00;;
45274;SDS011;31019;43.780;25.948;2023-04-09T07:43:00;32.33;;;29.73;;
45274;SDS011;31019;43.780;25.948;2023-04-09T07:45:29;34.83;;;31.90;;
45274;SDS011;31019;43.780;25.948;2023-04-09T07:47:56;32.40;;;29.70;;
45274;SDS011;31019;43.780;25.948;2023-04-09T07:50:23;37.92;;;34.83;;
45274;SDS011;31019;43.780;25.948;2023-04-09T07:52:50;39.88;;;36.00;;
45274;SDS011;31019;43.780;25.948;2023-04-09T07:55:18;31.48;;;29.23;;
45274;SDS011;31019;43.780;25.948;2023-04-09T07:57:45;30.83;;;28.45;;
45274;SDS011;31019;43.780;25.948;2023-04-09T08:00:12;25.52;;;23.48;;
45274;SDS011;31019;43.780;25.948;2023-04-09T08:02:41;26.00;;;23.80;;
45274;SDS011;31019;43.780;25.948;2023-04-09T08:05:09;27.88;;;25.75;;
45274;SDS011;31019;43.780;25.948;2023-04-09T08:07:36;28.30;;;26.23;;
45274;SDS011;31019;43.780;25.948;2023-04-09T08:10:03;28.30;;;25.95;;
45274;SDS011;31019;43.780;25.948;2023-04-09T08:12:30;23.65;;;21.83;;
45274;SDS011;31019;43.780;25.948;2023-04-09T08:15:00;22.42;;;20.48;;
45274;SDS011;31019;43.780;25.948;2023-04-09T08:17:28;25.35;;;23.13;;
45274;SDS011;31019;43.780;25.948;2023-04-09T08:19:59;21.73;;;20.02;;
45274;SDS011;31019;43.780;25.948;2023-04-09T08:22:27;29.30;;;27.02;;
45274;SDS011;31019;43.780;25.948;2023-04-09T08:24:54;26.25;;;24.13;;
45274;SDS011;31019;43.780;25.948;2023-04-09T08:27:22;25.88;;;23.88;;
45274;SDS011;31019;43.780;25.948;2023-04-09T08:29:49;25.88;;;23.88;;
45274;SDS011;31019;43.780;25.948;2023-04-09T08:32:16;27.27;;;25.10;;
45274;SDS011;31019;43.780;25.948;2023-04-09T08:34:43;29.75;;;27.25;;
45274;SDS011;31019;43.780;25.948;2023-04-09T08:37:11;25.92;;;23.70;;
45274;SDS011;31019;43.780;25.948;2023-04-09T08:39:38;24.75;;;22.75;;
45274;SDS011;31019;43.780;25.948;2023-04-09T08:42:05;23.85;;;21.90;;
45274;SDS011;31019;43.780;25.948;2023-04-09T08:44:33;24.73;;;22.83;;
45274;SDS011;31019;43.780;25.948;2023-04-09T08:47:01;26.63;;;24.42;;
45274;SDS011;31019;43.780;25.948;2023-04-09T08:49:34;26.23;;;23.92;;
45274;SDS011;31019;43.780;25.948;2023-04-09T08:52:01;24.80;;;22.80;;
45274;SDS011;31019;43.780;25.948;2023-04-09T08:54:33;27.45;;;25.02;;
45274;SDS011;31019;43.780;25.948;2023-04-09T08:57:03;27.88;;;25.67;;
45274;SDS011;31019;43.780;25.948;2023-04-09T08:59:30;25.88;;;23.85;;
45274;SDS011;31019;43.780;25.948;2023-04-09T09:02:07;23.48;;;21.58;;
45274;SDS011;31019;43.780;25.948;2023-04-09T09:04:45;25.50;;;23.42;;
45274;SDS011;31019;43.780;25.948;2023-04-09T09:07:17;27.30;;;25.02;;
45274;SDS011;31019;43.780;25.948;2023-04-09T09:09:53;26.48;;;24.38;;
45274;SDS011;31019;43.780;25.948;2023-04-09T09:12:29;25.60;;;23.60;;
45274;SDS011;31019;43.780;25.948;2023-04-09T09:14:57;26.55;;;24.27;;
45274;SDS011;31019;43.780;25.948;2023-04-09T09:17:24;25.52;;;23.52;;
45274;SDS011;31019;43.780;25.948;2023-04-09T09:19:51;26.67;;;24.48;;
45274;SDS011;31019;43.780;25.948;2023-04-09T09:22:18;27.10;;;24.98;;
45274;SDS011;31019;43.780;25.948;2023-04-09T09:24:45;26.77;;;24.52;;
45274;SDS011;31019;43.780;25.948;2023-04-09T09:27:20;26.65;;;24.45;;
45274;SDS011;31019;43.780;25.948;2023-04-09T09:29:57;25.98;;;23.70;;
45274;SDS011;31019;43.780;25.948;2023-04-09T09:32:24;27.67;;;25.25;;
45274;SDS011;31019;43.780;25.948;2023-04-09T09:35:01;26.73;;;24.42;;
45274;SDS011;31019;43.780;25.948;2023-04-09T09:37:29;27.42;;;25.33;;
45274;SDS011;31019;43.780;25.948;2023-04-09T09:39:57;25.90;;;23.70;;
45274;SDS011;31019;43.780;25.948;2023-04-09T09:42:26;26.90;;;24.77;;
45274;SDS011;31019;43.780;25.948;2023-04-09T09:44:58;26.73;;;24.63;;
45274;SDS011;31019;43.780;25.948;2023-04-09T09:47:26;28.33;;;26.13;;
45274;SDS011;31019;43.780;25.948;2023-04-09T09:49:55;29.92;;;27.52;;
45274;SDS011;31019;43.780;25.948;2023-04-09T09:52:23;29.50;;;27.20;;
45274;SDS011;31019;43.780;25.948;2023-04-09T09:54:52;26.02;;;24.02;;
45274;SDS011;31019;43.780;25.948;2023-04-09T09:57:20;29.48;;;26.98;;
45274;SDS011;31019;43.780;25.948;2023-04-09T09:59:57;31.00;;;28.02;;
45274;SDS011;31019;43.780;25.948;2023-04-09T10:02:30;26.50;;;24.40;;
45274;SDS011;31019;43.780;25.948;2023-04-09T10:05:06;26.00;;;23.85;;
45274;SDS011;31019;43.780;25.948;2023-04-09T10:07:34;25.92;;;23.77;;
45274;SDS011;31019;43.780;25.948;2023-04-09T10:10:02;28.05;;;25.52;;
45274;SDS011;31019;43.780;25.948;2023-04-09T10:12:32;29.45;;;26.95;;
45274;SDS011;31019;43.780;25.948;2023-04-09T10:15:02;28.77;;;26.40;;
45274;SDS011;31019;43.780;25.948;2023-04-09T10:17:30;29.52;;;26.92;;
45274;SDS011;31019;43.780;25.948;2023-04-09T10:20:03;25.67;;;23.67;;
45274;SDS011;31019;43.780;25.948;2023-04-09T10:22:36;26.30;;;24.30;;
45274;SDS011;31019;43.780;25.948;2023-04-09T10:25:03;26.70;;;24.70;;
45274;SDS011;31019;43.780;25.948;2023-04-09T10:27:32;27.08;;;24.92;;
45274;SDS011;31019;43.780;25.948;2023-04-09T10:29:59;26.23;;;24.13;;
45274;SDS011;31019;43.780;25.948;2023-04-09T10:32:33;26.30;;;23.75;;
45274;SDS011;31019;43.780;25.948;2023-04-09T10:35:01;28.48;;;26.08;;
45274;SDS011;31019;43.780;25.948;2023-04-09T10:37:29;28.42;;;26.23;;
45274;SDS011;31019;43.780;25.948;2023-04-09T10:39:56;26.27;;;24.30;;
45274;SDS011;31019;43.780;25.948;2023-04-09T10:42:28;26.48;;;24.20;;
45274;SDS011;31019;43.780;25.948;2023-04-09T10:45:07;24.42;;;22.35;;
45274;SDS011;31019;43.780;25.948;2023-04-09T10:47:36;26.02;;;23.80;;
45274;SDS011;31019;43.780;25.948;2023-04-09T10:50:14;25.10;;;23.00;;
45274;SDS011;31019;43.780;25.948;2023-04-09T10:52:42;25.48;;;23.38;;
45274;SDS011;31019;43.780;25.948;2023-04-09T10:55:09;26.25;;;24.02;;
45274;SDS011;31019;43.780;25.948;2023-04-09T11:00:35;26.30;;;24.00;;
45274;SDS011;31019;43.780;25.948;2023-04-09T11:05:47;27.15;;;24.63;;
45274;SDS011;31019;43.780;25.948;2023-04-09T11:08:20;26.40;;;24.20;;
45274;SDS011;31019;43.780;25.948;2023-04-09T11:10:47;26.67;;;24.40;;
45274;SDS011;31019;43.780;25.948;2023-04-09T11:13:20;26.88;;;24.58;;
45274;SDS011;31019;43.780;25.948;2023-04-09T11:15:50;27.65;;;25.30;;
45274;SDS011;31019;43.780;25.948;2023-04-09T11:18:20;26.38;;;24.13;;
45274;SDS011;31019;43.780;25.948;2023-04-09T11:20:48;26.52;;;24.42;;
45274;SDS011;31019;43.780;25.948;2023-04-09T11:23:19;27.20;;;25.00;;
45274;SDS011;31019;43.780;25.948;2023-04-09T11:25:47;26.15;;;23.95;;
45274;SDS011;31019;43.780;25.948;2023-04-09T11:28:19;27.92;;;25.52;;
45274;SDS011;31019;43.780;25.948;2023-04-09T11:30:48;25.55;;;23.35;;
45274;SDS011;31019;43.780;25.948;2023-04-09T11:33:18;25.97;;;23.87;;
45274;SDS011;31019;43.780;25.948;2023-04-09T11:35:45;23.98;;;22.05;;
45274;SDS011;31019;43.780;25.948;2023-04-09T11:38:13;26.27;;;23.98;;
45274;SDS011;31019;43.780;25.948;2023-04-09T11:40:41;23.83;;;21.92;;
45274;SDS011;31019;43.780;25.948;2023-04-09T11:43:12;25.10;;;23.20;;
45274;SDS011;31019;43.780;25.948;2023-04-09T11:45:42;24.27;;;22.48;;
45274;SDS011;31019;43.780;25.948;2023-04-09T11:48:12;23.70;;;21.92;;
45274;SDS011;31019;43.780;25.948;2023-04-09T11:50:42;25.17;;;23.17;;
45274;SDS011;31019;43.780;25.948;2023-04-09T11:53:19;24.92;;;23.13;;
45274;SDS011;31019;43.780;25.948;2023-04-09T11:55:48;25.35;;;23.30;;
45274;SDS011;31019;43.780;25.948;2023-04-09T11:58:16;25.05;;;22.83;;
45274;SDS011;31019;43.780;25.948;2023-04-09T12:00:43;26.48;;;24.42;;
45274;SDS011;31019;43.780;25.948;2023-04-09T12:03:10;26.00;;;23.90;;
45274;SDS011;31019;43.780;25.948;2023-04-09T12:05:43;27.02;;;24.92;;
45274;SDS011;31019;43.780;25.948;2023-04-09T12:08:12;28.17;;;25.77;;
45274;SDS011;31019;43.780;25.948;2023-04-09T12:10:41;27.42;;;25.13;;
45274;SDS011;31019;43.780;25.948;2023-04-09T12:13:09;24.55;;;22.65;;
45274;SDS011;31019;43.780;25.948;2023-04-09T12:15:40;26.77;;;24.58;;
45274;SDS011;31019;43.780;25.948;2023-04-09T12:18:08;25.70;;;23.70;;
45274;SDS011;31019;43.780;25.948;2023-04-09T12:20:37;25.90;;;23.80;;
45274;SDS011;31019;43.780;25.948;2023-04-09T12:23:08;25.75;;;23.65;;
45274;SDS011;31019;43.780;25.948;2023-04-09T12:25:36;25.55;;;23.45;;
45274;SDS011;31019;43.780;25.948;2023-04-09T12:28:05;24.42;;;22.35;;
45274;SDS011;31019;43.780;25.948;2023-04-09T12:30:34;27.35;;;24.92;;
45274;SDS011;31019;43.780;25.948;2023-04-09T12:33:01;26.55;;;24.65;;
45274;SDS011;31019;43.780;25.948;2023-04-09T12:35:29;28.15;;;26.05;;
45274;SDS011;31019;43.780;25.948;2023-04-09T12:37:56;26.60;;;24.52;;
45274;SDS011;31019;43.780;25.948;2023-04-09T12:40:26;25.02;;;22.92;;
45274;SDS011;31019;43.780;25.948;2023-04-09T12:42:53;24.55;;;22.65;;
45274;SDS011;31019;43.780;25.948;2023-04-09T12:45:20;25.88;;;23.88;;
45274;SDS011;31019;43.780;25.948;2023-04-09T12:47:47;24.98;;;23.08;;
45274;SDS011;31019;43.780;25.948;2023-04-09T12:50:15;25.38;;;23.38;;
45274;SDS011;31019;43.780;25.948;2023-04-09T12:52:42;24.65;;;22.75;;
45274;SDS011;31019;43.780;25.948;2023-04-09T12:55:10;24.63;;;22.63;;
45274;SDS011;31019;43.780;25.948;2023-04-09T12:57:41;24.58;;;22.48;;
45274;SDS011;31019;43.780;25.948;2023-04-09T13:00:09;24.87;;;22.97;;
45274;SDS011;31019;43.780;25.948;2023-04-09T13:02:38;26.65;;;24.65;;
45274;SDS011;31019;43.780;25.948;2023-04-09T13:05:05;24.75;;;22.95;;
45274;SDS011;31019;43.780;25.948;2023-04-09T13:07:32;25.40;;;23.48;;
45274;SDS011;31019;43.780;25.948;2023-04-09T13:09:59;24.42;;;22.52;;
45274;SDS011;31019;43.780;25.948;2023-04-09T13:12:26;24.85;;;22.98;;
45274;SDS011;31019;43.780;25.948;2023-04-09T13:14:54;26.75;;;24.88;;
45274;SDS011;31019;43.780;25.948;2023-04-09T13:17:23;25.08;;;23.35;;
45274;SDS011;31019;43.780;25.948;2023-04-09T13:20:04;24.95;;;23.17;;
45274;SDS011;31019;43.780;25.948;2023-04-09T13:23:07;25.27;;;23.45;;
45274;SDS011;31019;43.780;25.948;2023-04-09T13:26:01;25.48;;;23.48;;
45274;SDS011;31019;43.780;25.948;2023-04-09T13:28:57;24.92;;;22.83;;
45274;SDS011;31019;43.780;25.948;2023-04-09T13:32:05;23.90;;;21.90;;
45274;SDS011;31019;43.780;25.948;2023-04-09T13:35:13;24.45;;;22.15;;
45274;SDS011;31019;43.780;25.948;2023-04-09T13:38:33;23.85;;;21.92;;
45274;SDS011;31019;43.780;25.948;2023-04-09T13:41:16;25.27;;;23.38;;
45274;SDS011;31019;43.780;25.948;2023-04-09T13:44:08;27.73;;;25.25;;
45274;SDS011;31019;43.780;25.948;2023-04-09T13:47:11;27.08;;;24.50;;
45274;SDS011;31019;43.780;25.948;2023-04-09T13:53:21;23.80;;;21.80;;
45274;SDS011;31019;43.780;25.948;2023-04-09T13:57:18;25.58;;;23.40;;
45274;SDS011;31019;43.780;25.948;2023-04-09T13:59:12;26.80;;;24.33;;
45274;SDS011;31019;43.780;25.948;2023-04-09T14:02:33;22.55;;;20.63;;
45274;SDS011;31019;43.780;25.948;2023-04-09T14:05:25;26.08;;;23.85;;
45274;SDS011;31019;43.780;25.948;2023-04-09T14:08:14;27.27;;;24.77;;
45274;SDS011;31019;43.780;25.948;2023-04-09T14:14:51;27.50;;;24.90;;
45274;SDS011;31019;43.780;25.948;2023-04-09T14:40:17;24.17;;;22.10;;
45274;SDS011;31019;43.780;25.948;2023-04-09T14:43:22;24.77;;;22.88;;
45274;SDS011;31019;43.780;25.948;2023-04-09T14:46:10;24.38;;;22.38;;
45274;SDS011;31019;43.780;25.948;2023-04-09T14:52:46;24.20;;;22.40;;
45274;SDS011;31019;43.780;25.948;2023-04-09T14:59:27;24.30;;;22.30;;